Aérodrome :
LOGIN :

S'inscrire | Disclaimer

   EN    FR    IT 

 










Légende :    VFR   VFR Marginal   IFR   IFR Intensif   IFR Très Intensif
Visi : 
Plafond : 
>= 8 km
>= 3000ft
5 à 8 km
1000 à 3000 ft
1500m à 5 km
500 à 1000 ft
800 à 1500m
200 à 500 ft
< 800m
< 200 ft
Symboles :   Orages  Brouillard  Fortes neiges  Fortes précipitations  Vent > 20 kt
SIGMETs :   Divers  Orages  Givrage  Turbulence  Onde Orograph.  Cendres Volcan.






- Altitude de l'aérodrome : 3 ft
- Code IATA : DHR


EHKD - Den Helder De Kooy

DERNIER METAR :
  • 192055Z AUTO 05013KT 9999 OVC010 16/14 Q1012 GRN

METARs EXPIRÉS :
  • 192025Z AUTO 05013KT 020V080 9999 OVC011 16/14 Q1012 GRN
  • 191955Z AUTO 05013KT 010V070 9999 FEW009 OVC010 16/14 Q1012 GRN
  • 191925Z AUTO 05012KT 010V070 9999 BKN011 OVC013 16/14 Q1012 GRN
  • 191855Z AUTO 04010KT 360V070 9999 OVC010 16/13 Q1012 GRN
  • 191825Z AUTO 04009KT 360V080 9999 OVC009 16/13 Q1013 GRN

TAF TAF EHKD
Valide du 19 à 13h jusqu'au 20 à 01h UTC


191238Z 1913/2001 33006KT 9999 SCT008 BKN015
PROB30
TEMPO 1913/1915 4000 BR SCT004 BKN007
BECMG 1914/1916 36006KT BKN012 BKN020
BECMG 1916/1918 SCT015 BKN022
BECMG 1917/1919 05008G18KT
TEMPO 2000/2001 VRB12G25KT 3500 SHRA TSRA SCT060CB



MET'MAP, la Météo Aéronautique d'un coup d'oeil ! - Copyright ORBIFLY Décembre 2007 - Disclaimer

ORBIFLY MET'MAP TEAM :

Programmation & Développement : Alexandra Zaïnal
Sur une idée originale de : Baudouin d'Aumeries
Assistance à la programmation : Marc-Olivier Méhu
Soutien technique & logistique : Manuel Goepfert

Contact : metmap@orbifly.com




SOURCES & CREDITS :

   NOAA